Time;durP1;ratioP1;P1;durP2;ratioP2;P2;SDS_P1;SDS_P2;PMS_P1;PMS_P2;Temp;Humidity;BMP_temperature;BMP_pressure;BME280_temperature;BME280_humidity;BME280_pressure;Samples;Min_cycle;Max_cycle;Signal;HPM_P1;HPM_P2
2021/11/02 00:00:50;;;;;;;7.70;4.40;;;9.10;78.70;;;;;;5028068;28;20060;-72
2021/11/02 00:03:16;;;;;;;4.55;3.38;;;9.10;79.10;;;;;;5028296;28;20056;-76
2021/11/02 00:05:41;;;;;;;7.90;4.00;;;9.10;79.20;;;;;;5027297;28;20492;-76
2021/11/02 00:08:07;;;;;;;7.00;4.30;;;9.00;79.50;;;;;;5028703;28;20037;-76
2021/11/02 00:10:33;;;;;;;8.13;4.30;;;9.00;79.90;;;;;;5028493;28;20017;-76
2021/11/02 00:12:59;;;;;;;9.32;4.40;;;9.00;80.00;;;;;;5027005;28;20030;-76
2021/11/02 00:15:27;;;;;;;7.57;3.75;;;9.00;80.00;;;;;;5025339;28;20029;-76
2021/11/02 00:17:57;;;;;;;6.82;4.10;;;9.00;80.00;;;;;;5026288;28;20026;-76
2021/11/02 00:20:22;;;;;;;7.05;4.55;;;9.00;80.00;;;;;;5026442;28;20036;-76
2021/11/02 00:22:55;;;;;;;8.77;3.80;;;9.00;80.60;;;;;;5027127;28;20033;-76
2021/11/02 00:25:28;;;;;;;5.97;4.30;;;9.00;79.90;;;;;;5027614;28;20029;-76
2021/11/02 00:27:54;;;;;;;6.95;4.13;;;9.00;79.90;;;;;;5025631;28;20439;-74
2021/11/02 00:30:21;;;;;;;6.03;3.88;;;9.00;79.80;;;;;;5028433;28;20112;-73
2021/11/02 00:32:50;;;;;;;7.32;4.10;;;9.00;79.70;;;;;;5028528;28;20435;-74
2021/11/02 00:35:18;;;;;;;8.50;4.00;;;9.00;79.70;;;;;;5026308;28;20443;-75
2021/11/02 00:37:44;;;;;;;7.85;4.18;;;8.90;79.60;;;;;;5031700;28;20025;-73
2021/11/02 00:40:12;;;;;;;6.25;4.30;;;8.90;79.40;;;;;;5030576;28;20060;-76
2021/11/02 00:42:40;;;;;;;6.18;4.30;;;8.90;79.30;;;;;;5031945;28;20493;-76
2021/11/02 00:45:12;;;;;;;7.55;4.30;;;8.90;79.30;;;;;;5030003;28;20033;-76
2021/11/02 00:47:38;;;;;;;10.43;4.07;;;8.90;79.30;;;;;;5030569;28;20089;-76
2021/11/02 00:50:10;;;;;;;6.30;3.97;;;8.80;79.20;;;;;;5031198;28;20072;-76
2021/11/02 00:52:40;;;;;;;5.20;3.90;;;8.80;79.00;;;;;;5031590;28;20069;-76
2021/11/02 00:55:07;;;;;;;5.65;4.05;;;8.80;78.90;;;;;;5028778;28;20112;-73
2021/11/02 00:57:34;;;;;;;5.93;4.18;;;8.80;78.90;;;;;;5031740;28;20338;-76
2021/11/02 00:59:59;;;;;;;8.63;4.13;;;8.80;78.90;;;;;;5031434;28;20524;-76
2021/11/02 01:02:25;;;;;;;7.68;4.20;;;8.70;78.80;;;;;;5031880;28;20022;-73
2021/11/02 01:04:51;;;;;;;6.28;4.20;;;8.70;78.60;;;;;;5029549;28;20374;-73
2021/11/02 01:07:17;;;;;;;7.45;5.32;;;8.70;78.70;;;;;;5030167;28;20049;-73
2021/11/02 01:09:44;;;;;;;9.13;5.15;;;8.70;78.70;;;;;;5013772;28;20428;-73
2021/11/02 01:12:11;;;;;;;7.25;4.65;;;8.60;78.70;;;;;;5031841;28;20361;-73
2021/11/02 01:14:37;;;;;;;7.30;4.50;;;8.60;78.80;;;;;;5009803;28;20037;-73
2021/11/02 01:17:04;;;;;;;7.30;4.65;;;8.60;78.70;;;;;;5029397;28;20447;-73
2021/11/02 01:19:30;;;;;;;7.82;4.90;;;8.60;78.70;;;;;;5029067;28;20182;-72
2021/11/02 01:21:56;;;;;;;9.02;4.82;;;8.50;78.70;;;;;;5030668;28;20033;-73
2021/11/02 01:24:22;;;;;;;7.28;4.57;;;8.50;78.70;;;;;;5030236;28;20469;-76
2021/11/02 01:26:48;;;;;;;6.57;4.60;;;8.40;78.70;;;;;;5031028;28;20408;-76
2021/11/02 01:29:15;;;;;;;7.72;4.40;;;8.50;78.70;;;;;;5028330;28;20026;-76
2021/11/02 01:31:43;;;;;;;6.20;4.25;;;8.40;78.60;;;;;;5031130;28;20087;-76
2021/11/02 01:34:09;;;;;;;5.88;4.10;;;8.40;78.60;;;;;;5030137;28;20072;-76
2021/11/02 01:36:35;;;;;;;5.70;4.40;;;8.40;78.60;;;;;;5030625;28;20049;-75
2021/11/02 01:39:01;;;;;;;7.25;4.97;;;8.40;78.60;;;;;;5029339;28;20025;-76
2021/11/02 01:41:28;;;;;;;6.78;4.70;;;8.30;78.60;;;;;;5031316;28;20061;-72
2021/11/02 01:43:57;;;;;;;5.53;4.18;;;8.30;78.50;;;;;;5009733;28;20039;-72
2021/11/02 01:46:29;;;;;;;8.63;4.13;;;8.30;78.50;;;;;;5030879;28;20392;-73
2021/11/02 01:48:57;;;;;;;6.65;4.20;;;8.30;78.40;;;;;;5029702;28;20029;-76
2021/11/02 01:51:24;;;;;;;6.65;4.15;;;8.30;78.40;;;;;;5028965;28;20032;-73
2021/11/02 01:53:50;;;;;;;6.78;4.68;;;8.20;78.20;;;;;;5030209;28;20036;-73
2021/11/02 01:56:18;;;;;;;8.43;4.80;;;8.20;78.30;;;;;;5030394;28;20044;-73
2021/11/02 01:58:47;;;;;;;9.30;4.20;;;8.20;78.30;;;;;;5030489;28;21484;-76
2021/11/02 02:01:34;;;;;;;5.13;4.03;;;8.20;78.30;;;;;;5029473;28;20695;-73
2021/11/02 02:04:17;;;;;;;7.97;4.00;;;8.20;78.30;;;;;;5026824;28;20346;-72
2021/11/02 02:07:07;;;;;;;6.70;4.68;;;8.10;78.30;;;;;;5023777;28;20041;-76
2021/11/02 02:09:47;;;;;;;6.15;4.28;;;8.10;78.30;;;;;;5025493;28;20041;-76
2021/11/02 02:12:34;;;;;;;6.97;3.85;;;8.10;78.40;;;;;;5029977;28;20022;-72
2021/11/02 02:15:26;;;;;;;9.95;4.30;;;8.00;78.40;;;;;;5029825;28;20108;-73
2021/11/02 02:18:02;;;;;;;6.00;3.70;;;8.00;78.30;;;;;;5029739;28;20021;-73
2021/11/02 02:20:47;;;;;;;6.40;3.50;;;8.00;78.40;;;;;;5029424;28;20103;-73
2021/11/02 02:23:32;;;;;;;5.63;4.00;;;8.00;78.40;;;;;;5029411;28;20021;-76
2021/11/02 02:26:05;;;;;;;5.38;3.63;;;7.90;78.40;;;;;;5030451;28;20026;-76
2021/11/02 02:28:36;;;;;;;5.15;3.55;;;7.90;78.40;;;;;;5029912;28;20128;-76
2021/11/02 02:31:11;;;;;;;9.48;5.32;;;7.80;78.30;;;;;;5028489;28;20029;-76
2021/11/02 02:33:41;;;;;;;6.85;4.00;;;7.80;78.50;;;;;;5032329;28;20037;-76
2021/11/02 02:36:07;;;;;;;6.82;4.00;;;7.80;78.50;;;;;;5036459;28;20045;-73
2021/11/02 02:38:37;;;;;;;7.32;3.90;;;7.80;78.60;;;;;;5029485;28;20068;-77
2021/11/02 02:41:04;;;;;;;6.72;4.30;;;7.80;78.60;;;;;;5029361;28;20033;-73
2021/11/02 02:43:33;;;;;;;9.23;4.05;;;7.70;78.50;;;;;;5028833;28;20070;-77
2021/11/02 02:46:00;;;;;;;6.68;3.78;;;7.70;78.60;;;;;;5028242;28;20029;-76
2021/11/02 02:48:27;;;;;;;5.53;3.65;;;7.70;78.50;;;;;;5010853;28;20033;-73
2021/11/02 02:50:57;;;;;;;6.38;4.47;;;7.70;78.50;;;;;;5028942;28;20095;-76
2021/11/02 02:53:24;;;;;;;4.95;3.65;;;7.70;78.50;;;;;;5028917;28;20116;-76
2021/11/02 02:55:53;;;;;;;5.25;3.45;;;7.70;78.50;;;;;;5027794;28;20018;-76
2021/11/02 02:58:20;;;;;;;5.28;4.00;;;7.70;78.50;;;;;;5027556;28;20131;-76
2021/11/02 03:00:47;;;;;;;5.78;3.70;;;7.70;78.50;;;;;;5028856;28;20036;-72
2021/11/02 03:03:13;;;;;;;4.88;3.65;;;7.60;78.40;;;;;;5028029;28;20030;-72
2021/11/02 03:05:40;;;;;;;7.07;4.20;;;7.60;78.40;;;;;;5028884;28;20551;-72
2021/11/02 03:08:06;;;;;;;5.07;3.80;;;7.60;78.50;;;;;;5028109;28;20030;-72
2021/11/02 03:10:32;;;;;;;6.05;3.88;;;7.60;78.40;;;;;;5029153;28;20041;-72
2021/11/02 03:13:05;;;;;;;7.75;4.07;;;7.60;78.40;;;;;;5027513;28;20017;-76
2021/11/02 03:51:48;;;;;;;7.20;4.57;;;7.30;79.50;;;;;;5025792;28;20037;-72
2021/11/02 03:57:17;;;;;;;6.05;4.50;;;7.30;79.80;;;;;;5028673;28;20131;-76
2021/11/02 04:24:57;;;;;;;5.93;3.95;;;7.20;80.60;;;;;;5032197;28;20487;-72
2021/11/02 05:56:12;;;;;;;5.30;3.63;;;6.80;81.40;;;;;;5027483;28;20075;-76
2021/11/02 06:28:10;;;;;;;4.45;3.45;;;6.80;81.80;;;;;;5038341;28;20041;-76
2021/11/02 06:30:45;;;;;;;6.82;3.58;;;6.80;81.70;;;;;;5029536;28;20140;-75
2021/11/02 06:33:30;;;;;;;5.40;3.70;;;6.80;81.60;;;;;;5033300;28;20069;-85
2021/11/02 06:36:10;;;;;;;5.18;3.40;;;6.80;81.70;;;;;;5041177;28;20090;-85
2021/11/02 06:39:00;;;;;;;5.30;3.45;;;6.80;81.70;;;;;;5028351;28;20412;-84
2021/11/02 06:47:29;;;;;;;5.43;3.55;;;6.80;81.70;;;;;;5039140;28;20044;-84
2021/11/02 06:53:00;;;;;;;6.13;3.85;;;6.80;81.90;;;;;;5029363;28;20524;-76
2021/11/02 06:55:51;;;;;;;5.80;3.47;;;6.80;81.90;;;;;;5033179;28;20087;-76
2021/11/02 06:59:07;;;;;;;5.30;3.85;;;6.80;82.00;;;;;;5023468;28;20041;-85
2021/11/02 07:18:23;;;;;;;5.97;4.60;;;6.80;82.80;;;;;;5033724;28;20032;-84
2021/11/02 07:21:07;;;;;;;8.68;4.57;;;6.80;82.90;;;;;;5014561;28;21114;-84
2021/11/02 07:23:39;;;;;;;7.60;4.30;;;6.80;82.90;;;;;;5032790;28;20105;-85
2021/11/02 08:47:01;;;;;;;8.38;5.70;;;8.10;88.60;;;;;;5030041;28;20156;-85
2021/11/02 08:49:28;;;;;;;7.53;5.50;;;8.20;88.70;;;;;;5024312;28;20057;-85
2021/11/02 08:51:57;;;;;;;8.80;5.32;;;8.20;88.70;;;;;;5023689;28;20431;-84
2021/11/02 08:54:24;;;;;;;6.80;5.10;;;8.20;88.80;;;;;;5033573;28;20447;-84
2021/11/02 08:56:53;;;;;;;8.98;5.72;;;8.20;88.90;;;;;;5026598;28;20025;-84
2021/11/02 08:59:18;;;;;;;8.93;5.95;;;8.30;89.00;;;;;;5029255;28;20057;-84
2021/11/02 09:01:52;;;;;;;7.85;5.38;;;8.30;89.00;;;;;;5026980;28;20049;-84
2021/11/02 09:04:19;;;;;;;8.65;5.65;;;8.40;89.30;;;;;;5028190;28;20041;-83
2021/11/02 09:06:50;;;;;;;9.60;6.65;;;8.40;89.50;;;;;;5030240;28;20025;-83
2021/11/02 09:09:19;;;;;;;8.45;5.03;;;8.40;89.50;;;;;;5026965;28;20032;-84
2021/11/02 09:11:45;;;;;;;24.33;7.43;;;8.40;89.50;;;;;;5027162;28;20420;-84
2021/11/02 09:14:13;;;;;;;12.52;7.03;;;8.40;89.70;;;;;;5027921;28;20029;-84
2021/11/02 09:16:40;;;;;;;7.93;5.07;;;8.50;89.70;;;;;;5019496;28;20025;-84
2021/11/02 09:19:08;;;;;;;8.73;5.25;;;8.50;89.60;;;;;;5021565;28;20037;-85
2021/11/02 09:21:34;;;;;;;9.63;5.18;;;8.50;89.50;;;;;;5027103;28;20029;-85
2021/11/02 09:24:01;;;;;;;8.70;5.93;;;8.50;89.50;;;;;;5009945;28;20033;-86
2021/11/02 09:26:29;;;;;;;6.20;4.72;;;8.50;89.40;;;;;;5003921;28;20037;-86
2021/11/02 09:28:55;;;;;;;10.40;5.60;;;8.60;89.60;;;;;;5030425;28;20042;-86
2021/11/02 09:31:27;;;;;;;7.47;4.72;;;8.60;89.90;;;;;;5028684;28;20033;-86
2021/11/02 09:33:53;;;;;;;8.88;5.43;;;8.60;89.90;;;;;;5023137;28;20044;-87
2021/11/02 09:36:30;;;;;;;7.65;5.25;;;8.60;89.90;;;;;;5028654;28;20038;-83
2021/11/02 09:39:04;;;;;;;8.88;5.38;;;8.60;90.00;;;;;;5024062;28;20172;-87
2021/11/02 09:41:36;;;;;;;8.27;4.90;;;8.70;89.90;;;;;;5025093;28;20029;-86
2021/11/02 09:44:13;;;;;;;13.13;5.28;;;8.70;89.80;;;;;;5025822;28;20029;-87
2021/11/02 09:46:59;;;;;;;10.63;5.82;;;8.70;89.80;;;;;;5029912;28;20079;-84
2021/11/02 09:50:21;;;;;;;11.95;6.22;;;8.70;89.80;;;;;;5029284;28;20079;-85
2021/11/02 09:53:05;;;;;;;7.53;6.20;;;8.70;89.90;;;;;;5008001;28;20381;-79
2021/11/02 09:56:10;;;;;;;7.68;6.28;;;8.80;90.10;;;;;;5005778;28;20448;-79
2021/11/02 09:59:04;;;;;;;8.40;6.05;;;8.80;90.20;;;;;;5022367;28;20097;-76
2021/11/02 10:01:44;;;;;;;8.65;5.47;;;8.80;90.20;;;;;;5027898;28;20053;-78
2021/11/02 10:04:30;;;;;;;10.68;6.72;;;8.90;90.20;;;;;;5028172;28;20033;-87
2021/11/02 10:07:08;;;;;;;6.85;5.72;;;8.90;90.20;;;;;;5028429;28;20472;-78
2021/11/02 10:09:47;;;;;;;7.20;5.95;;;8.90;90.20;;;;;;5031153;28;20079;-78
2021/11/02 10:12:42;;;;;;;7.82;5.93;;;9.00;90.30;;;;;;5021767;28;20080;-87
2021/11/02 10:15:40;;;;;;;8.13;6.40;;;8.90;90.20;;;;;;5008680;28;20029;-87
2021/11/02 10:18:17;;;;;;;13.13;6.28;;;8.90;90.30;;;;;;5020563;28;20374;-87
2021/11/02 10:20:48;;;;;;;;;;;8.90;90.40;;;;;;5014118;28;20038;-87
2021/11/02 10:23:31;;;;;;;8.10;6.20;;;8.90;90.30;;;;;;5022724;28;20368;-87
2021/11/02 10:26:07;;;;;;;9.25;6.47;;;9.00;90.50;;;;;;5024675;28;20381;-86
2021/11/02 10:28:54;;;;;;;8.85;6.35;;;9.00;90.50;;;;;;5027240;28;20029;-72
2021/11/02 10:31:26;;;;;;;13.43;7.97;;;9.10;90.50;;;;;;5022458;28;20535;-72
2021/11/02 10:34:10;;;;;;;8.40;6.78;;;9.20;90.60;;;;;;5028508;28;20517;-72
2021/11/02 10:36:48;;;;;;;10.05;7.00;;;9.30;90.50;;;;;;5029097;28;20091;-73
2021/11/02 10:39:29;;;;;;;8.70;6.15;;;9.30;90.50;;;;;;5018718;28;20389;-73
2021/11/02 10:42:23;;;;;;;11.50;6.75;;;9.30;90.40;;;;;;5020034;28;20117;-72
2021/11/02 10:44:52;;;;;;;11.63;7.30;;;9.40;90.40;;;;;;5017950;28;20044;-72
2021/11/02 10:47:25;;;;;;;11.07;7.57;;;9.40;90.40;;;;;;5025523;28;20048;-71
2021/11/02 10:50:09;;;;;;;9.18;7.32;;;9.40;90.50;;;;;;5027623;28;20465;-70
2021/11/02 10:52:37;;;;;;;12.77;7.57;;;9.40;90.40;;;;;;5029322;28;20033;-71
2021/11/02 10:55:18;;;;;;;9.48;5.85;;;9.50;90.50;;;;;;5029440;28;20350;-80
2021/11/02 10:57:59;;;;;;;11.20;7.57;;;9.50;90.50;;;;;;5025858;28;20125;-79
2021/11/02 11:00:27;;;;;;;16.05;9.23;;;9.50;90.50;;;;;;5028353;28;20032;-79
2021/11/02 11:02:56;;;;;;;10.07;6.93;;;9.50;90.50;;;;;;5044689;28;20028;-88
2021/11/02 11:05:27;;;;;;;11.80;8.05;;;9.60;90.50;;;;;;5015868;28;20410;-88
2021/11/02 11:07:54;;;;;;;10.40;7.35;;;9.60;90.50;;;;;;5014802;28;20168;-88
2021/11/02 11:10:22;;;;;;;12.05;7.70;;;9.70;90.50;;;;;;5013032;28;20017;-87
2021/11/02 11:12:51;;;;;;;10.02;7.60;;;9.70;90.70;;;;;;5027552;28;20097;-88
2021/11/02 11:15:18;;;;;;;10.18;8.18;;;9.70;90.30;;;;;;5034333;28;20090;-87
2021/11/02 11:18:01;;;;;;;12.13;8.00;;;9.70;90.40;;;;;;5026469;28;20022;-87
2021/11/02 11:20:27;;;;;;;8.98;7.07;;;9.70;90.30;;;;;;5011633;28;20482;-87
2021/11/02 11:22:54;;;;;;;10.63;7.85;;;9.80;90.40;;;;;;5007220;28;20064;-87
2021/11/02 11:25:21;;;;;;;9.95;7.38;;;9.80;90.40;;;;;;5029616;28;20024;-87
2021/11/02 11:27:51;;;;;;;10.05;6.82;;;9.90;90.30;;;;;;5030346;28;20029;-91
2021/11/02 11:30:19;;;;;;;11.05;6.95;;;9.90;90.20;;;;;;5029570;28;20040;-87
2021/11/02 11:32:47;;;;;;;11.32;7.20;;;10.00;90.20;;;;;;5013494;28;20489;-91
2021/11/02 11:35:13;;;;;;;9.75;7.10;;;10.00;90.10;;;;;;5029412;28;20045;-91
2021/11/02 11:37:41;;;;;;;9.60;7.13;;;10.00;90.00;;;;;;5010424;28;20164;-78
2021/11/02 11:40:09;;;;;;;9.38;7.28;;;10.00;89.60;;;;;;5027007;28;20024;-79
2021/11/02 11:42:36;;;;;;;7.88;6.63;;;9.90;89.50;;;;;;5027829;28;20125;-79
2021/11/02 11:45:08;;;;;;;11.00;6.78;;;10.00;90.10;;;;;;5026126;28;20041;-79
2021/11/02 11:47:34;;;;;;;8.60;7.13;;;10.00;89.90;;;;;;5026848;28;20112;-79
2021/11/02 11:50:20;;;;;;;11.07;7.53;;;10.00;89.70;;;;;;4993777;28;20042;-76
2021/11/02 11:52:48;;;;;;;9.98;7.18;;;10.00;89.70;;;;;;5020731;28;20033;-79
2021/11/02 11:55:26;;;;;;;9.38;7.75;;;10.10;89.80;;;;;;5025753;28;20576;-79
2021/11/02 11:58:24;;;;;;;11.48;8.40;;;10.10;89.50;;;;;;5023276;28;20022;-79
2021/11/02 12:01:04;;;;;;;9.73;7.88;;;10.10;89.50;;;;;;5024317;28;20041;-80
2021/11/02 12:03:51;;;;;;;10.73;8.50;;;10.10;89.50;;;;;;5022921;28;20399;-79
2021/11/02 12:06:19;;;;;;;8.93;7.25;;;10.10;89.10;;;;;;5029229;28;20090;-79
2021/11/02 12:08:51;;;;;;;9.70;8.43;;;10.10;89.20;;;;;;5021162;28;20030;-78
2021/11/02 12:11:18;;;;;;;;;;;10.10;89.00;;;;;;5022926;28;20060;-79
2021/11/02 12:13:46;;;;;;;8.27;6.88;;;10.10;88.80;;;;;;5020838;28;19909;-78
2021/11/02 12:16:24;;;;;;;8.68;7.57;;;10.10;89.00;;;;;;5025390;28;20044;-78
2021/11/02 12:19:30;;;;;;;9.23;7.60;;;10.20;89.20;;;;;;5019646;28;20057;-78
2021/11/02 12:22:08;;;;;;;9.60;8.05;;;10.20;89.30;;;;;;5009356;28;20063;-79
2021/11/02 12:24:36;;;;;;;12.15;8.30;;;10.30;89.20;;;;;;5021765;28;20021;-79
2021/11/02 12:27:17;;;;;;;8.93;6.75;;;10.40;89.50;;;;;;5024733;28;20088;-79
2021/11/02 12:29:48;;;;;;;9.52;6.88;;;10.50;89.40;;;;;;5025086;28;20091;-79
2021/11/02 12:32:17;;;;;;;11.40;7.60;;;10.50;89.10;;;;;;5029702;28;20030;-87
2021/11/02 12:34:53;;;;;;;8.60;7.07;;;10.60;89.20;;;;;;5020741;28;20065;-88
2021/11/02 12:37:21;;;;;;;9.95;6.78;;;10.60;89.20;;;;;;5030972;28;20033;-87
2021/11/02 12:39:48;;;;;;;8.07;6.22;;;10.60;89.10;;;;;;5013667;28;20056;-87
2021/11/02 12:42:20;;;;;;;8.77;6.70;;;10.60;89.10;;;;;;5030880;28;20026;-87
2021/11/02 12:44:47;;;;;;;8.82;7.30;;;10.60;89.10;;;;;;5024159;28;20079;-86
2021/11/02 12:47:15;;;;;;;9.05;7.20;;;10.60;89.00;;;;;;5038976;28;20036;-82
2021/11/02 12:49:54;;;;;;;8.65;7.18;;;10.60;88.90;;;;;;5016988;28;20034;-87
2021/11/02 12:52:24;;;;;;;9.00;6.80;;;10.50;88.60;;;;;;5027025;28;20543;-78
2021/11/02 12:55:24;;;;;;;11.93;7.25;;;10.50;88.50;;;;;;5041144;28;20029;-88
2021/11/02 12:57:59;;;;;;;7.60;6.63;;;10.50;88.20;;;;;;5039608;28;20025;-87
2021/11/02 13:00:28;;;;;;;9.07;7.22;;;10.50;88.40;;;;;;5023426;28;20086;-86
2021/11/02 13:03:02;;;;;;;9.23;7.10;;;10.50;88.60;;;;;;5020242;28;20096;-84
2021/11/02 13:05:30;;;;;;;10.60;6.97;;;10.50;88.70;;;;;;5024841;28;20350;-79
2021/11/02 13:08:04;;;;;;;8.02;6.47;;;10.60;88.70;;;;;;5019985;28;20329;-83
2021/11/02 13:10:31;;;;;;;8.48;7.22;;;10.70;88.50;;;;;;5039746;28;20042;-83
2021/11/02 13:13:09;;;;;;;13.27;7.22;;;10.70;88.30;;;;;;5027673;28;20087;-79
2021/11/02 13:15:49;;;;;;;11.95;7.57;;;10.70;88.40;;;;;;5039679;28;20040;-80
2021/11/02 13:18:31;;;;;;;8.52;6.95;;;10.80;88.30;;;;;;5031359;28;20021;-83
2021/11/02 13:21:19;;;;;;;8.48;7.13;;;10.80;88.40;;;;;;5022546;28;20076;-78
2021/11/02 13:23:48;;;;;;;10.75;8.25;;;10.80;88.30;;;;;;5025912;28;20053;-77
2021/11/02 13:26:15;;;;;;;8.18;7.38;;;10.80;87.90;;;;;;5028900;28;20144;-78
2021/11/02 13:28:41;;;;;;;9.00;7.18;;;10.80;88.00;;;;;;5030451;28;20084;-78
2021/11/02 13:31:23;;;;;;;8.32;7.53;;;10.80;87.90;;;;;;5013315;28;20477;-76
2021/11/02 13:34:01;;;;;;;8.32;7.05;;;10.80;87.90;;;;;;5030265;28;20060;-77
2021/11/02 13:36:27;;;;;;;9.65;7.72;;;10.80;87.90;;;;;;5030613;28;20057;-78
2021/11/02 13:39:05;;;;;;;11.65;6.80;;;10.80;87.80;;;;;;5031352;28;20071;-78
2021/11/02 13:41:36;;;;;;;12.45;7.40;;;10.80;88.20;;;;;;5031905;28;20033;-79
2021/11/02 13:44:07;;;;;;;9.23;7.07;;;10.80;88.10;;;;;;5022278;28;20124;-79
2021/11/02 13:46:42;;;;;;;9.98;7.30;;;10.80;88.30;;;;;;5027006;28;20029;-84
2021/11/02 13:49:09;;;;;;;7.78;6.93;;;10.80;88.20;;;;;;5029424;28;20025;-83
2021/11/02 13:51:36;;;;;;;9.77;7.18;;;10.90;88.30;;;;;;5013470;28;20578;-82
2021/11/02 13:54:03;;;;;;;7.13;6.43;;;10.80;88.00;;;;;;5030698;28;20025;-82
2021/11/02 13:56:31;;;;;;;8.48;7.45;;;10.80;87.80;;;;;;5027807;28;20035;-86
2021/11/02 13:58:58;;;;;;;8.60;6.85;;;10.80;87.80;;;;;;5042826;28;20026;-84
2021/11/02 14:01:47;;;;;;;7.47;6.40;;;10.80;87.90;;;;;;5013982;28;20033;-82
2021/11/02 14:04:38;;;;;;;9.52;7.50;;;10.80;87.90;;;;;;5021897;28;20024;-83
2021/11/02 14:07:07;;;;;;;7.25;6.55;;;10.80;87.70;;;;;;5025835;28;20484;-81
2021/11/02 14:09:36;;;;;;;7.88;6.18;;;10.80;87.80;;;;;;5017322;28;20028;-82
2021/11/02 14:12:22;;;;;;;10.68;6.60;;;10.80;87.10;;;;;;5026094;28;20512;-85
2021/11/02 14:14:48;;;;;;;7.82;6.15;;;10.80;87.30;;;;;;5029789;28;20399;-83
2021/11/02 14:17:23;;;;;;;7.63;5.68;;;10.70;87.40;;;;;;5028778;28;20104;-80
2021/11/02 14:19:53;;;;;;;6.80;6.10;;;10.70;87.50;;;;;;5014448;28;20503;-88
2021/11/02 14:22:42;;;;;;;8.93;6.43;;;10.80;87.60;;;;;;5006254;28;20038;-89
2021/11/02 14:25:17;;;;;;;9.25;5.70;;;10.70;87.40;;;;;;5023169;28;20163;-82
2021/11/02 14:27:51;;;;;;;9.25;6.18;;;10.70;87.40;;;;;;5020020;28;20108;-82
2021/11/02 14:30:30;;;;;;;8.80;6.30;;;10.70;87.30;;;;;;5019400;28;20430;-83
2021/11/02 14:32:56;;;;;;;6.90;5.97;;;10.80;87.10;;;;;;5025616;28;20033;-80
2021/11/02 14:35:36;;;;;;;7.03;5.85;;;10.80;87.20;;;;;;5007877;28;20345;-78
2021/11/02 14:38:13;;;;;;;8.73;6.53;;;10.70;87.30;;;;;;5025432;28;20032;-76
2021/11/02 14:40:42;;;;;;;10.18;5.60;;;10.70;87.40;;;;;;5029152;28;20447;-78
2021/11/02 14:43:14;;;;;;;8.85;6.03;;;10.70;87.20;;;;;;5027714;28;20080;-78
2021/11/02 14:45:43;;;;;;;7.85;5.85;;;10.70;87.30;;;;;;5025600;28;20033;-79
2021/11/02 14:48:39;;;;;;;8.07;6.25;;;10.70;87.20;;;;;;5029010;28;20124;-80
2021/11/02 14:51:16;;;;;;;7.85;6.22;;;10.70;87.60;;;;;;5029868;28;20033;-79
2021/11/02 14:53:44;;;;;;;8.00;6.43;;;10.70;87.50;;;;;;5027285;28;20033;-78
2021/11/02 14:56:27;;;;;;;10.93;6.55;;;10.70;87.40;;;;;;5027863;28;20511;-78
2021/11/02 14:58:55;;;;;;;8.60;6.30;;;10.70;87.70;;;;;;5029933;28;20172;-79
2021/11/02 15:01:33;;;;;;;7.35;6.50;;;10.70;87.80;;;;;;5052263;28;20033;-79
2021/11/02 15:04:19;;;;;;;7.30;5.90;;;10.80;87.60;;;;;;5024056;28;20393;-78
2021/11/02 15:06:53;;;;;;;4.45;4.03;;;10.70;87.60;;;;;;5025348;28;20083;-79
2021/11/02 15:09:26;;;;;;;4.82;3.50;;;10.70;87.40;;;;;;5028786;28;20021;-78
2021/11/02 15:11:52;;;;;;;3.92;2.50;;;10.60;87.10;;;;;;5006556;28;20043;-78
2021/11/02 15:14:27;;;;;;;2.80;2.13;;;10.50;85.80;;;;;;5029581;28;20021;-78
2021/11/02 15:17:00;;;;;;;3.03;2.63;;;10.50;86.10;;;;;;5021485;28;20468;-78
2021/11/02 15:19:29;;;;;;;2.72;1.73;;;10.50;86.20;;;;;;5027112;28;20056;-78
2021/11/02 15:22:00;;;;;;;2.58;1.77;;;10.50;86.00;;;;;;5026127;28;20036;-81
2021/11/02 15:24:32;;;;;;;5.10;2.20;;;10.50;86.00;;;;;;5027234;28;20026;-79
2021/11/02 15:27:01;;;;;;;2.05;1.60;;;10.40;85.50;;;;;;5019720;28;20029;-80
2021/11/02 15:29:30;;;;;;;2.83;1.70;;;10.40;85.50;;;;;;5028113;28;20030;-93
2021/11/02 15:32:07;;;;;;;2.13;1.67;;;10.40;85.50;;;;;;5023501;28;20574;-78
2021/11/02 15:34:43;;;;;;;2.10;1.90;;;10.30;85.60;;;;;;5019484;28;20017;-81
2021/11/02 15:37:13;;;;;;;2.30;2.10;;;10.30;85.30;;;;;;5021694;28;20130;-79
2021/11/02 15:39:40;;;;;;;5.55;2.20;;;10.30;85.50;;;;;;5016072;28;20026;-70
2021/11/02 15:42:25;;;;;;;2.65;2.42;;;10.30;85.80;;;;;;5004792;28;20033;-84
2021/11/02 15:44:56;;;;;;;4.07;2.72;;;10.40;86.00;;;;;;5030560;28;20108;-80
2021/11/02 15:47:24;;;;;;;3.20;2.38;;;10.40;86.00;;;;;;5028471;28;20033;-77
2021/11/02 15:50:08;;;;;;;3.88;2.40;;;10.40;86.00;;;;;;5027346;28;20046;-76
2021/11/02 15:52:36;;;;;;;5.05;2.85;;;10.40;86.10;;;;;;5028950;28;20033;-77
2021/11/02 15:55:11;;;;;;;5.30;3.47;;;10.40;86.20;;;;;;5025326;28;20488;-77
2021/11/02 15:57:54;;;;;;;3.05;2.75;;;10.40;86.30;;;;;;5030688;28;20492;-76
2021/11/02 16:00:27;;;;;;;4.93;2.80;;;10.40;86.40;;;;;;5033695;28;20030;-76
2021/11/02 16:02:55;;;;;;;3.70;3.03;;;10.40;86.40;;;;;;5035517;28;20036;-77
2021/11/02 16:05:26;;;;;;;4.32;3.50;;;10.40;86.40;;;;;;5029586;28;20033;-77
2021/11/02 16:07:53;;;;;;;5.47;4.40;;;10.40;86.20;;;;;;5033381;28;20025;-77
2021/11/02 16:10:27;;;;;;;4.10;3.70;;;10.40;86.40;;;;;;5037556;28;20526;-76
2021/11/02 16:12:53;;;;;;;4.88;4.38;;;10.30;86.60;;;;;;5034289;28;20439;-77
2021/11/02 16:15:22;;;;;;;4.85;4.45;;;10.30;86.60;;;;;;5038410;28;20030;-76
2021/11/02 16:17:50;;;;;;;5.38;4.60;;;10.40;86.70;;;;;;5030421;28;20025;-77
2021/11/02 16:20:19;;;;;;;5.57;4.53;;;10.40;86.70;;;;;;5031037;28;20554;-77
2021/11/02 16:22:52;;;;;;;6.47;5.70;;;10.30;86.80;;;;;;5037145;28;20040;-77
2021/11/02 16:25:18;;;;;;;5.90;5.22;;;10.30;86.90;;;;;;5034511;28;20025;-76
2021/11/02 16:28:03;;;;;;;6.82;6.07;;;10.30;87.10;;;;;;5035520;28;20033;-76
2021/11/02 16:30:43;;;;;;;7.28;5.68;;;10.30;86.90;;;;;;5028130;28;20117;-78
2021/11/02 16:33:11;;;;;;;7.22;6.13;;;10.30;87.00;;;;;;5025201;28;20064;-78
2021/11/02 16:35:46;;;;;;;7.15;6.22;;;10.30;86.90;;;;;;5036902;28;20049;-78
2021/11/02 16:38:37;;;;;;;7.57;6.80;;;10.20;87.00;;;;;;5030331;28;20376;-75
2021/11/02 16:41:22;;;;;;;7.60;6.50;;;10.30;87.10;;;;;;5029066;28;20022;-74
2021/11/02 16:43:52;;;;;;;7.35;6.32;;;10.30;87.00;;;;;;5020790;28;20053;-76
2021/11/02 16:46:31;;;;;;;6.65;5.32;;;10.30;86.90;;;;;;5035178;28;20694;-75
2021/11/02 16:49:03;;;;;;;7.75;6.72;;;10.30;86.90;;;;;;5029238;28;20029;-75
2021/11/02 16:51:49;;;;;;;6.53;5.93;;;10.20;86.70;;;;;;5026735;28;20025;-77
2021/11/02 16:54:20;;;;;;;6.28;5.68;;;10.20;86.80;;;;;;5027259;28;20033;-76
2021/11/02 16:56:55;;;;;;;6.68;6.05;;;10.20;86.90;;;;;;5024728;28;20022;-77
2021/11/02 17:00:04;;;;;;;6.90;5.93;;;10.10;87.00;;;;;;5034799;28;20037;-80
2021/11/02 17:02:37;;;;;;;5.80;5.30;;;10.10;87.10;;;;;;5010490;28;20816;-82
2021/11/02 17:05:04;;;;;;;5.72;5.18;;;10.10;87.10;;;;;;5025339;28;20349;-82
2021/11/02 17:07:51;;;;;;;7.82;4.03;;;10.20;87.10;;;;;;5034140;28;20049;-90
2021/11/02 17:10:23;;;;;;;6.45;4.30;;;10.10;86.70;;;;;;5029082;28;20416;-76
2021/11/02 17:12:50;;;;;;;3.70;3.40;;;10.10;86.50;;;;;;5027712;28;20088;-76
2021/11/02 17:15:49;;;;;;;3.63;3.33;;;10.10;86.60;;;;;;5034070;28;20032;-83
2021/11/02 17:18:18;;;;;;;4.40;3.53;;;10.10;86.90;;;;;;5015327;28;20099;-82
2021/11/02 17:21:05;;;;;;;3.65;3.10;;;10.10;86.70;;;;;;5033462;28;20369;-77
2021/11/02 17:23:31;;;;;;;4.38;3.20;;;10.10;86.50;;;;;;5038400;28;20025;-82
2021/11/02 17:26:00;;;;;;;5.03;3.03;;;10.10;86.50;;;;;;5015268;28;20144;-75
2021/11/02 17:28:26;;;;;;;3.78;2.80;;;10.00;86.40;;;;;;5038020;28;20021;-77
2021/11/02 17:30:52;;;;;;;3.47;3.00;;;10.00;86.10;;;;;;5031784;28;20090;-75
2021/11/02 17:33:19;;;;;;;5.72;2.88;;;10.00;86.00;;;;;;5025432;28;20014;-82
2021/11/02 17:35:46;;;;;;;4.40;3.10;;;10.00;86.00;;;;;;5035167;28;20055;-81
2021/11/02 17:38:14;;;;;;;4.15;2.70;;;10.00;86.00;;;;;;5033461;28;20030;-77
2021/11/02 17:40:41;;;;;;;3.90;2.47;;;10.00;86.00;;;;;;5010841;28;20033;-76
2021/11/02 17:43:07;;;;;;;4.18;2.97;;;10.00;85.80;;;;;;5029231;28;20022;-76
2021/11/02 17:45:34;;;;;;;4.50;2.67;;;10.00;85.50;;;;;;5025378;28;20033;-76
2021/11/02 17:48:00;;;;;;;4.75;2.95;;;9.90;85.30;;;;;;5036952;28;20029;-76
2021/11/02 17:50:29;;;;;;;2.95;2.55;;;9.90;85.00;;;;;;5030976;28;20034;-76
2021/11/02 17:52:55;;;;;;;5.45;3.40;;;9.90;85.20;;;;;;5034100;28;20111;-76
2021/11/02 17:55:21;;;;;;;3.83;3.22;;;9.80;85.20;;;;;;5020642;28;20052;-76
2021/11/02 17:57:50;;;;;;;3.45;2.95;;;9.80;85.20;;;;;;5029379;28;20075;-76
2021/11/02 18:00:19;;;;;;;3.88;3.47;;;9.80;85.40;;;;;;5028710;28;20033;-76
2021/11/02 18:02:47;;;;;;;4.53;3.53;;;9.70;85.50;;;;;;5031112;28;20028;-79
2021/11/02 18:05:13;;;;;;;4.35;3.17;;;9.80;85.50;;;;;;5033666;28;20032;-80
2021/11/02 18:07:39;;;;;;;3.83;3.13;;;9.70;85.60;;;;;;5031966;28;20029;-80
2021/11/02 18:10:06;;;;;;;3.70;3.30;;;9.80;85.40;;;;;;5028703;28;20052;-80